sensor_id;sensor_type;location;lat;lon;timestamp;pressure;altitude;pressure_sealevel;temperature;humidity
48964;BME280;34776;48.180;16.420;2023-02-15T00:00:17;101564.38;;;4.83;62.17
48964;BME280;34776;48.180;16.420;2023-02-15T00:02:43;101560.84;;;4.86;62.20
48964;BME280;34776;48.180;16.420;2023-02-15T00:05:08;101569.63;;;4.91;61.96
48964;BME280;34776;48.180;16.420;2023-02-15T00:07:34;101556.47;;;4.93;61.84
48964;BME280;34776;48.180;16.420;2023-02-15T00:09:59;101562.59;;;4.93;61.88
48964;BME280;34776;48.180;16.420;2023-02-15T00:12:25;101559.09;;;4.93;61.97
48964;BME280;34776;48.180;16.420;2023-02-15T00:14:50;101555.56;;;4.89;61.97
48964;BME280;34776;48.180;16.420;2023-02-15T00:28:05;101549.44;;;4.84;61.91
48964;BME280;34776;48.180;16.420;2023-02-15T00:30:30;101549.44;;;4.82;62.11
48964;BME280;34776;48.180;16.420;2023-02-15T00:32:56;101545.03;;;4.83;62.13
48964;BME280;34776;48.180;16.420;2023-02-15T00:35:21;101550.31;;;4.80;62.04
48964;BME280;34776;48.180;16.420;2023-02-15T00:37:46;101551.19;;;4.74;62.17
48964;BME280;34776;48.180;16.420;2023-02-15T00:40:12;101552.94;;;4.67;62.23
48964;BME280;34776;48.180;16.420;2023-02-15T00:42:39;101559.09;;;4.60;62.45
48964;BME280;34776;48.180;16.420;2023-02-15T00:45:04;101548.53;;;4.57;62.52
48964;BME280;34776;48.180;16.420;2023-02-15T00:47:30;101549.41;;;4.55;62.82
48964;BME280;34776;48.180;16.420;2023-02-15T00:49:55;101547.66;;;4.55;62.80
48964;BME280;34776;48.180;16.420;2023-02-15T00:52:21;101555.56;;;4.58;62.64
48964;BME280;34776;48.180;16.420;2023-02-15T00:54:47;101544.16;;;4.64;62.53
48964;BME280;34776;48.180;16.420;2023-02-15T00:57:13;101544.16;;;4.70;62.54
48964;BME280;34776;48.180;16.420;2023-02-15T00:59:39;101545.03;;;4.74;62.37
48964;BME280;34776;48.180;16.420;2023-02-15T01:02:04;101541.53;;;4.76;62.32
48964;BME280;34776;48.180;16.420;2023-02-15T01:04:30;101536.25;;;4.76;62.12
48964;BME280;34776;48.180;16.420;2023-02-15T01:06:56;101533.63;;;4.76;62.38
48964;BME280;34776;48.180;16.420;2023-02-15T01:09:22;101526.63;;;4.75;62.38
48964;BME280;34776;48.180;16.420;2023-02-15T01:11:47;101525.75;;;4.75;62.41
48964;BME280;34776;48.180;16.420;2023-02-15T01:14:13;101525.75;;;4.75;62.36
48964;BME280;34776;48.180;16.420;2023-02-15T01:16:39;101518.72;;;4.74;62.36
48964;BME280;34776;48.180;16.420;2023-02-15T01:19:05;101519.59;;;4.71;62.44
48964;BME280;34776;48.180;16.420;2023-02-15T01:21:31;101520.47;;;4.68;62.54
48964;BME280;34776;48.180;16.420;2023-02-15T01:24:00;101518.69;;;4.67;62.52
48964;BME280;34776;48.180;16.420;2023-02-15T01:26:26;101512.56;;;4.68;62.43
48964;BME280;34776;48.180;16.420;2023-02-15T01:28:51;101509.94;;;4.68;62.47
48964;BME280;34776;48.180;16.420;2023-02-15T01:31:18;101505.53;;;4.67;62.50
48964;BME280;34776;48.180;16.420;2023-02-15T01:33:45;101504.69;;;4.68;62.42
48964;BME280;34776;48.180;16.420;2023-02-15T01:36:11;101502.94;;;4.71;62.28
48964;BME280;34776;48.180;16.420;2023-02-15T01:38:37;101496.78;;;4.68;62.29
48964;BME280;34776;48.180;16.420;2023-02-15T01:41:03;101495.00;;;4.69;62.29
48964;BME280;34776;48.180;16.420;2023-02-15T01:43:50;101495.88;;;4.82;62.32
48964;BME280;34776;48.180;16.420;2023-02-15T01:46:17;101494.16;;;4.81;61.92
48964;BME280;34776;48.180;16.420;2023-02-15T01:48:50;101497.66;;;4.77;61.85
48964;BME280;34776;48.180;16.420;2023-02-15T01:51:20;101494.16;;;4.75;62.15
48964;BME280;34776;48.180;16.420;2023-02-15T01:54:01;101492.38;;;4.74;62.06
48964;BME280;34776;48.180;16.420;2023-02-15T01:56:32;101490.59;;;4.74;62.08
48964;BME280;34776;48.180;16.420;2023-02-15T01:59:00;101484.50;;;4.71;62.32
48964;BME280;34776;48.180;16.420;2023-02-15T02:01:28;101490.63;;;4.70;62.17
48964;BME280;34776;48.180;16.420;2023-02-15T02:03:58;101480.09;;;4.70;62.43
48964;BME280;34776;48.180;16.420;2023-02-15T02:06:26;101471.31;;;4.69;62.20
48964;BME280;34776;48.180;16.420;2023-02-15T02:08:53;101472.19;;;4.63;62.47
48964;BME280;34776;48.180;16.420;2023-02-15T02:11:19;101477.44;;;4.51;62.49
48964;BME280;34776;48.180;16.420;2023-02-15T02:13:45;101476.56;;;4.49;62.62
48964;BME280;34776;48.180;16.420;2023-02-15T02:22:46;101474.81;;;4.63;62.20
48964;BME280;34776;48.180;16.420;2023-02-15T02:27:48;101457.28;;;4.56;62.39
48964;BME280;34776;48.180;16.420;2023-02-15T02:33:32;101456.41;;;4.46;62.53
48964;BME280;34776;48.180;16.420;2023-02-15T02:38:50;101446.72;;;4.41;62.76
48964;BME280;34776;48.180;16.420;2023-02-15T02:41:32;101444.97;;;4.43;62.80
48964;BME280;34776;48.180;16.420;2023-02-15T02:46:38;101450.28;;;4.47;62.68
48964;BME280;34776;48.180;16.420;2023-02-15T02:49:04;101445.88;;;4.53;62.45
48964;BME280;34776;48.180;16.420;2023-02-15T02:51:30;101448.50;;;4.54;62.46
48964;BME280;34776;48.180;16.420;2023-02-15T02:53:59;101438.84;;;4.53;62.54
48964;BME280;34776;48.180;16.420;2023-02-15T02:59:17;101437.97;;;4.51;62.53
48964;BME280;34776;48.180;16.420;2023-02-15T03:01:50;101441.47;;;4.47;62.73
48964;BME280;34776;48.180;16.420;2023-02-15T03:04:44;101430.94;;;4.47;62.82
48964;BME280;34776;48.180;16.420;2023-02-15T03:07:18;101437.09;;;4.52;62.73
48964;BME280;34776;48.180;16.420;2023-02-15T03:09:50;101437.97;;;4.48;62.72
48964;BME280;34776;48.180;16.420;2023-02-15T03:12:20;101436.22;;;4.47;62.80
48964;BME280;34776;48.180;16.420;2023-02-15T03:14:53;101428.31;;;4.48;62.91
48964;BME280;34776;48.180;16.420;2023-02-15T03:17:22;101431.84;;;4.54;63.00
48964;BME280;34776;48.180;16.420;2023-02-15T03:19:50;101422.19;;;4.54;63.02
48964;BME280;34776;48.180;16.420;2023-02-15T03:22:28;101429.19;;;4.49;63.02
48964;BME280;34776;48.180;16.420;2023-02-15T03:27:24;101428.31;;;4.41;63.19
48964;BME280;34776;48.180;16.420;2023-02-15T03:29:53;101420.41;;;4.41;63.21
48964;BME280;34776;48.180;16.420;2023-02-15T03:32:21;101427.44;;;4.40;63.03
48964;BME280;34776;48.180;16.420;2023-02-15T03:34:47;101427.44;;;4.39;63.25
48964;BME280;34776;48.180;16.420;2023-02-15T03:37:36;101433.59;;;4.39;63.36
48964;BME280;34776;48.180;16.420;2023-02-15T03:40:22;101432.69;;;4.45;63.33
48964;BME280;34776;48.180;16.420;2023-02-15T03:45:52;101430.97;;;4.56;62.97
48964;BME280;34776;48.180;16.420;2023-02-15T03:48:29;101436.22;;;4.56;62.90
48964;BME280;34776;48.180;16.420;2023-02-15T03:51:00;101433.59;;;4.38;63.05
48964;BME280;34776;48.180;16.420;2023-02-15T03:53:46;101429.22;;;4.35;63.23
48964;BME280;34776;48.180;16.420;2023-02-15T03:56:13;101430.06;;;4.36;63.30
48964;BME280;34776;48.180;16.420;2023-02-15T03:58:38;101437.97;;;4.30;63.37
48964;BME280;34776;48.180;16.420;2023-02-15T04:04:11;101430.97;;;4.29;63.43
48964;BME280;34776;48.180;16.420;2023-02-15T04:06:40;101441.50;;;4.29;63.56
48964;BME280;34776;48.180;16.420;2023-02-15T04:09:06;101437.97;;;4.31;63.55
48964;BME280;34776;48.180;16.420;2023-02-15T04:11:50;101432.72;;;4.36;63.41
48964;BME280;34776;48.180;16.420;2023-02-15T04:14:15;101433.59;;;4.33;63.59
48964;BME280;34776;48.180;16.420;2023-02-15T04:16:59;101437.97;;;4.39;63.40
48964;BME280;34776;48.180;16.420;2023-02-15T04:19:24;101427.44;;;4.42;63.32
48964;BME280;34776;48.180;16.420;2023-02-15T04:22:08;101432.69;;;4.46;63.14
48964;BME280;34776;48.180;16.420;2023-02-15T04:24:52;101441.47;;;4.44;63.19
48964;BME280;34776;48.180;16.420;2023-02-15T04:27:37;101430.94;;;4.41;63.36
48964;BME280;34776;48.180;16.420;2023-02-15T04:30:02;101430.97;;;4.39;63.26
48964;BME280;34776;48.180;16.420;2023-02-15T04:32:28;101430.06;;;4.39;63.39
48964;BME280;34776;48.180;16.420;2023-02-15T04:34:53;101430.06;;;4.34;63.68
48964;BME280;34776;48.180;16.420;2023-02-15T04:37:19;101420.44;;;4.29;63.94
48964;BME280;34776;48.180;16.420;2023-02-15T04:39:45;101425.69;;;4.25;63.86
48964;BME280;34776;48.180;16.420;2023-02-15T04:42:11;101428.34;;;4.33;63.84
48964;BME280;34776;48.180;16.420;2023-02-15T04:44:36;101431.81;;;4.34;63.99
48964;BME280;34776;48.180;16.420;2023-02-15T04:47:01;101422.19;;;4.33;63.85
48964;BME280;34776;48.180;16.420;2023-02-15T04:49:27;101427.47;;;4.26;63.91
48964;BME280;34776;48.180;16.420;2023-02-15T04:51:52;101428.31;;;4.25;63.98
48964;BME280;34776;48.180;16.420;2023-02-15T04:54:17;101428.34;;;4.29;63.94
48964;BME280;34776;48.180;16.420;2023-02-15T04:56:43;101431.81;;;4.32;64.04
48964;BME280;34776;48.180;16.420;2023-02-15T04:59:11;101426.56;;;4.32;63.75
48964;BME280;34776;48.180;16.420;2023-02-15T05:01:37;101426.56;;;4.26;63.89
48964;BME280;34776;48.180;16.420;2023-02-15T05:04:03;101429.19;;;4.27;63.93
48964;BME280;34776;48.180;16.420;2023-02-15T05:06:28;101431.84;;;4.31;63.99
48964;BME280;34776;48.180;16.420;2023-02-15T05:08:53;101437.97;;;4.30;64.07
48964;BME280;34776;48.180;16.420;2023-02-15T05:11:19;101429.19;;;4.32;63.75
48964;BME280;34776;48.180;16.420;2023-02-15T05:13:44;101436.22;;;4.25;63.72
48964;BME280;34776;48.180;16.420;2023-02-15T05:16:10;101427.47;;;4.26;63.89
48964;BME280;34776;48.180;16.420;2023-02-15T05:18:35;101426.56;;;4.26;63.72
48964;BME280;34776;48.180;16.420;2023-02-15T05:21:00;101434.47;;;4.31;63.87
48964;BME280;34776;48.180;16.420;2023-02-15T05:23:26;101428.31;;;4.32;63.64
48964;BME280;34776;48.180;16.420;2023-02-15T05:25:51;101432.72;;;4.37;63.54
48964;BME280;34776;48.180;16.420;2023-02-15T05:28:37;101443.25;;;4.42;63.35
48964;BME280;34776;48.180;16.420;2023-02-15T05:31:08;101436.19;;;4.41;63.50
48964;BME280;34776;48.180;16.420;2023-02-15T05:33:34;101437.97;;;4.42;63.40
48964;BME280;34776;48.180;16.420;2023-02-15T05:36:00;101437.97;;;4.42;63.23
48964;BME280;34776;48.180;16.420;2023-02-15T05:38:26;101437.97;;;4.39;63.45
48964;BME280;34776;48.180;16.420;2023-02-15T05:40:51;101437.97;;;4.39;63.37
48964;BME280;34776;48.180;16.420;2023-02-15T05:43:17;101433.56;;;4.42;63.46
48964;BME280;34776;48.180;16.420;2023-02-15T05:45:50;101430.97;;;4.44;63.41
48964;BME280;34776;48.180;16.420;2023-02-15T05:48:17;101435.34;;;4.48;63.03
48964;BME280;34776;48.180;16.420;2023-02-15T05:50:44;101434.47;;;4.47;63.17
48964;BME280;34776;48.180;16.420;2023-02-15T05:53:09;101437.09;;;4.47;63.14
48964;BME280;34776;48.180;16.420;2023-02-15T05:55:40;101437.09;;;4.46;63.14
48964;BME280;34776;48.180;16.420;2023-02-15T05:58:07;101438.84;;;4.41;63.15
48964;BME280;34776;48.180;16.420;2023-02-15T06:00:33;101437.09;;;4.40;63.16
48964;BME280;34776;48.180;16.420;2023-02-15T06:02:59;101436.22;;;4.35;63.22
48964;BME280;34776;48.180;16.420;2023-02-15T06:05:24;101442.34;;;4.38;63.23
48964;BME280;34776;48.180;16.420;2023-02-15T06:07:50;101437.97;;;4.42;63.33
48964;BME280;34776;48.180;16.420;2023-02-15T06:10:15;101443.22;;;4.45;63.37
48964;BME280;34776;48.180;16.420;2023-02-15T06:12:40;101446.75;;;4.45;63.16
48964;BME280;34776;48.180;16.420;2023-02-15T06:15:33;101445.00;;;4.37;63.21
48964;BME280;34776;48.180;16.420;2023-02-15T06:17:58;101449.38;;;4.36;63.26
48964;BME280;34776;48.180;16.420;2023-02-15T06:20:24;101448.50;;;4.42;63.22
48964;BME280;34776;48.180;16.420;2023-02-15T06:22:50;101449.38;;;4.47;63.35
48964;BME280;34776;48.180;16.420;2023-02-15T06:25:15;101457.25;;;4.47;62.99
48964;BME280;34776;48.180;16.420;2023-02-15T06:27:42;101461.66;;;4.43;63.18
48964;BME280;34776;48.180;16.420;2023-02-15T06:30:09;101458.16;;;4.44;63.01
48964;BME280;34776;48.180;16.420;2023-02-15T06:32:35;101460.78;;;4.43;63.08
48964;BME280;34776;48.180;16.420;2023-02-15T06:35:00;101461.66;;;4.45;63.15
48964;BME280;34776;48.180;16.420;2023-02-15T06:37:26;101459.03;;;4.48;63.07
48964;BME280;34776;48.180;16.420;2023-02-15T06:39:51;101459.91;;;4.38;63.31
48964;BME280;34776;48.180;16.420;2023-02-15T06:42:17;101465.16;;;4.36;63.48
48964;BME280;34776;48.180;16.420;2023-02-15T06:44:43;101463.41;;;4.43;63.50
48964;BME280;34776;48.180;16.420;2023-02-15T06:47:09;101470.44;;;4.45;63.29
48964;BME280;34776;48.180;16.420;2023-02-15T06:49:35;101454.66;;;4.44;63.22
48964;BME280;34776;48.180;16.420;2023-02-15T06:52:01;101459.91;;;4.39;63.13
48964;BME280;34776;48.180;16.420;2023-02-15T06:54:27;101452.88;;;4.40;63.12
48964;BME280;34776;48.180;16.420;2023-02-15T06:56:52;101461.66;;;4.42;63.19
48964;BME280;34776;48.180;16.420;2023-02-15T06:59:17;101452.88;;;4.44;63.07
48964;BME280;34776;48.180;16.420;2023-02-15T07:01:43;101462.53;;;4.41;63.48
48964;BME280;34776;48.180;16.420;2023-02-15T07:04:09;101456.38;;;4.45;63.30
48964;BME280;34776;48.180;16.420;2023-02-15T07:06:34;101448.50;;;4.54;63.17
48964;BME280;34776;48.180;16.420;2023-02-15T07:09:00;101453.78;;;4.60;63.05
48964;BME280;34776;48.180;16.420;2023-02-15T07:11:26;101446.75;;;4.56;62.84
48964;BME280;34776;48.180;16.420;2023-02-15T07:14:10;101455.53;;;4.58;62.78
48964;BME280;34776;48.180;16.420;2023-02-15T07:16:35;101451.13;;;4.53;63.18
48964;BME280;34776;48.180;16.420;2023-02-15T07:19:01;101447.63;;;4.54;63.01
48964;BME280;34776;48.180;16.420;2023-02-15T07:21:27;101451.13;;;4.66;62.89
48964;BME280;34776;48.180;16.420;2023-02-15T07:23:56;101444.09;;;4.76;62.78
48964;BME280;34776;48.180;16.420;2023-02-15T07:26:21;101441.47;;;4.81;62.50
48964;BME280;34776;48.180;16.420;2023-02-15T07:28:47;101441.44;;;4.84;62.74
48964;BME280;34776;48.180;16.420;2023-02-15T07:31:12;101446.72;;;4.92;62.57
48964;BME280;34776;48.180;16.420;2023-02-15T07:33:38;101443.19;;;5.00;62.34
48964;BME280;34776;48.180;16.420;2023-02-15T07:36:04;101446.69;;;5.01;62.22
48964;BME280;34776;48.180;16.420;2023-02-15T07:38:35;101437.91;;;5.06;62.19
48964;BME280;34776;48.180;16.420;2023-02-15T07:41:02;101443.13;;;5.14;61.89
48964;BME280;34776;48.180;16.420;2023-02-15T07:43:28;101446.66;;;5.21;61.89
48964;BME280;34776;48.180;16.420;2023-02-15T07:45:59;101446.63;;;5.24;61.98
48964;BME280;34776;48.180;16.420;2023-02-15T07:48:24;101450.09;;;5.29;61.63
48964;BME280;34776;48.180;16.420;2023-02-15T07:50:50;101452.75;;;5.29;61.83
48964;BME280;34776;48.180;16.420;2023-02-15T07:53:15;101448.41;;;5.25;61.68
48964;BME280;34776;48.180;16.420;2023-02-15T07:55:40;101451.03;;;5.23;61.87
48964;BME280;34776;48.180;16.420;2023-02-15T07:58:06;101447.50;;;5.24;61.86
48964;BME280;34776;48.180;16.420;2023-02-15T08:00:31;101444.84;;;5.29;61.89
48964;BME280;34776;48.180;16.420;2023-02-15T08:03:16;101446.59;;;5.30;61.66
48964;BME280;34776;48.180;16.420;2023-02-15T08:05:43;101455.34;;;5.44;61.73
48964;BME280;34776;48.180;16.420;2023-02-15T08:08:10;101450.03;;;5.54;61.38
48964;BME280;34776;48.180;16.420;2023-02-15T08:14:13;101455.31;;;5.47;61.20
48964;BME280;34776;48.180;16.420;2023-02-15T08:16:47;101455.31;;;5.54;61.15
48964;BME280;34776;48.180;16.420;2023-02-15T08:19:21;101454.44;;;5.55;61.28
48964;BME280;34776;48.180;16.420;2023-02-15T08:21:50;101450.00;;;5.63;61.15
48964;BME280;34776;48.180;16.420;2023-02-15T08:24:18;101450.81;;;5.74;60.87
48964;BME280;34776;48.180;16.420;2023-02-15T08:26:44;101447.28;;;5.80;60.57
48964;BME280;34776;48.180;16.420;2023-02-15T08:29:12;101454.28;;;5.84;60.49
48964;BME280;34776;48.180;16.420;2023-02-15T08:31:38;101452.59;;;5.69;60.60
48964;BME280;34776;48.180;16.420;2023-02-15T08:34:06;101454.31;;;5.73;60.76
48964;BME280;34776;48.180;16.420;2023-02-15T08:36:32;101451.69;;;5.73;60.44
48964;BME280;34776;48.180;16.420;2023-02-15T08:38:59;101446.41;;;5.76;60.51
48964;BME280;34776;48.180;16.420;2023-02-15T08:41:27;101454.25;;;5.90;60.32
48964;BME280;34776;48.180;16.420;2023-02-15T08:43:54;101446.34;;;5.95;60.03
48964;BME280;34776;48.180;16.420;2023-02-15T08:46:21;101450.72;;;5.96;60.11
48964;BME280;34776;48.180;16.420;2023-02-15T08:48:47;101446.31;;;5.98;60.06
48964;BME280;34776;48.180;16.420;2023-02-15T08:51:13;101445.38;;;6.06;59.78
48964;BME280;34776;48.180;16.420;2023-02-15T08:53:40;101444.44;;;6.15;59.64
48964;BME280;34776;48.180;16.420;2023-02-15T08:56:06;101442.63;;;6.23;59.42
48964;BME280;34776;48.180;16.420;2023-02-15T08:58:32;101441.72;;;6.29;59.60
48964;BME280;34776;48.180;16.420;2023-02-15T09:00:58;101439.03;;;6.34;59.35
48964;BME280;34776;48.180;16.420;2023-02-15T09:03:24;101436.41;;;6.30;59.16
48964;BME280;34776;48.180;16.420;2023-02-15T09:05:49;101441.63;;;6.40;59.21
48964;BME280;34776;48.180;16.420;2023-02-15T09:08:15;101435.44;;;6.44;58.78
48964;BME280;34776;48.180;16.420;2023-02-15T09:10:41;101438.97;;;6.43;58.69
48964;BME280;34776;48.180;16.420;2023-02-15T09:13:06;101438.94;;;6.46;58.55
48964;BME280;34776;48.180;16.420;2023-02-15T09:15:32;101442.44;;;6.51;58.71
48964;BME280;34776;48.180;16.420;2023-02-15T09:17:57;101433.59;;;6.52;58.35
48964;BME280;34776;48.180;16.420;2023-02-15T09:20:26;101435.41;;;6.45;58.41
48964;BME280;34776;48.180;16.420;2023-02-15T09:22:53;101439.69;;;6.60;58.48
48964;BME280;34776;48.180;16.420;2023-02-15T09:25:19;101434.34;;;6.68;58.25
48964;BME280;34776;48.180;16.420;2023-02-15T09:27:44;101434.31;;;6.73;57.92
48964;BME280;34776;48.180;16.420;2023-02-15T09:30:10;101426.34;;;6.76;57.81
48964;BME280;34776;48.180;16.420;2023-02-15T09:32:36;101431.66;;;6.73;57.79
48964;BME280;34776;48.180;16.420;2023-02-15T09:35:01;101430.69;;;6.81;57.92
48964;BME280;34776;48.180;16.420;2023-02-15T09:37:26;101431.44;;;6.97;57.29
48964;BME280;34776;48.180;16.420;2023-02-15T09:39:52;101425.97;;;7.09;57.20
48964;BME280;34776;48.180;16.420;2023-02-15T09:45:26;101426.03;;;7.06;57.10
48964;BME280;34776;48.180;16.420;2023-02-15T09:53:47;101436.41;;;7.22;56.57
48964;BME280;34776;48.180;16.420;2023-02-15T09:56:37;101422.25;;;7.29;56.17
48964;BME280;34776;48.180;16.420;2023-02-15T10:13:20;101414.69;;;7.69;55.38
48964;BME280;34776;48.180;16.420;2023-02-15T10:16:13;101412.47;;;8.01;54.63
48964;BME280;34776;48.180;16.420;2023-02-15T10:42:14;101402.13;;;7.85;54.30
48964;BME280;34776;48.180;16.420;2023-02-15T10:44:56;101397.59;;;7.92;54.35
48964;BME280;34776;48.180;16.420;2023-02-15T10:47:32;101399.44;;;7.87;54.21
48964;BME280;34776;48.180;16.420;2023-02-15T10:56:22;101370.13;;;8.01;54.08
48964;BME280;34776;48.180;16.420;2023-02-15T11:01:30;101366.59;;;8.00;54.00
48964;BME280;34776;48.180;16.420;2023-02-15T11:09:21;101359.72;;;7.88;54.11
48964;BME280;34776;48.180;16.420;2023-02-15T11:11:54;101354.47;;;7.85;54.22
48964;BME280;34776;48.180;16.420;2023-02-15T11:14:38;101352.88;;;7.75;53.88
48964;BME280;34776;48.180;16.420;2023-02-15T11:17:10;101361.91;;;7.59;54.81
48964;BME280;34776;48.180;16.420;2023-02-15T11:22:35;101353.84;;;7.66;54.86
48964;BME280;34776;48.180;16.420;2023-02-15T11:41:25;101341.94;;;7.97;54.46
48964;BME280;34776;48.180;16.420;2023-02-15T11:44:06;101330.00;;;7.71;54.73
48964;BME280;34776;48.180;16.420;2023-02-15T11:46:31;101323.78;;;7.73;54.97
48964;BME280;34776;48.180;16.420;2023-02-15T11:48:57;101328.00;;;7.85;54.78
48964;BME280;34776;48.180;16.420;2023-02-15T11:51:23;101325.13;;;8.01;54.88
48964;BME280;34776;48.180;16.420;2023-02-15T11:53:49;101325.78;;;8.12;54.40
48964;BME280;34776;48.180;16.420;2023-02-15T12:05:30;101319.84;;;7.99;54.66
48964;BME280;34776;48.180;16.420;2023-02-15T12:10:39;101311.78;;;8.07;54.53
48964;BME280;34776;48.180;16.420;2023-02-15T12:13:16;101313.31;;;8.20;54.66
48964;BME280;34776;48.180;16.420;2023-02-15T12:15:45;101317.44;;;8.35;54.26
48964;BME280;34776;48.180;16.420;2023-02-15T12:21:05;101307.00;;;8.76;53.52
48964;BME280;34776;48.180;16.420;2023-02-15T12:32:34;101294.38;;;7.92;54.63
48964;BME280;34776;48.180;16.420;2023-02-15T12:35:27;101292.09;;;8.23;53.69
48964;BME280;34776;48.180;16.420;2023-02-15T12:37:57;101291.56;;;8.52;53.78
48964;BME280;34776;48.180;16.420;2023-02-15T12:40:30;101296.59;;;8.66;53.53
48964;BME280;34776;48.180;16.420;2023-02-15T12:42:56;101293.16;;;8.61;53.30
48964;BME280;34776;48.180;16.420;2023-02-15T12:45:32;101286.09;;;8.60;52.81
48964;BME280;34776;48.180;16.420;2023-02-15T12:50:35;101287.44;;;8.83;53.10
48964;BME280;34776;48.180;16.420;2023-02-15T12:53:31;101283.13;;;8.76;52.29
48964;BME280;34776;48.180;16.420;2023-02-15T12:56:02;101282.44;;;8.67;52.90
48964;BME280;34776;48.180;16.420;2023-02-15T12:58:33;101273.81;;;8.56;53.25
48964;BME280;34776;48.180;16.420;2023-02-15T13:03:55;101262.38;;;8.54;52.90
48964;BME280;34776;48.180;16.420;2023-02-15T13:06:21;101261.53;;;8.52;53.40
48964;BME280;34776;48.180;16.420;2023-02-15T13:08:52;101255.63;;;8.83;53.62
48964;BME280;34776;48.180;16.420;2023-02-15T13:11:26;101258.47;;;9.16;52.64
48964;BME280;34776;48.180;16.420;2023-02-15T13:13:56;101250.44;;;9.17;52.47
48964;BME280;34776;48.180;16.420;2023-02-15T13:16:35;101247.31;;;9.00;52.43
48964;BME280;34776;48.180;16.420;2023-02-15T13:19:06;101248.31;;;8.94;52.78
48964;BME280;34776;48.180;16.420;2023-02-15T13:21:35;101242.38;;;9.22;53.09
48964;BME280;34776;48.180;16.420;2023-02-15T13:24:13;101238.22;;;9.49;52.29
48964;BME280;34776;48.180;16.420;2023-02-15T13:26:41;101229.13;;;9.59;51.83
48964;BME280;34776;48.180;16.420;2023-02-15T13:29:25;101230.19;;;9.52;51.53
48964;BME280;34776;48.180;16.420;2023-02-15T13:31:53;101236.06;;;9.65;51.77
48964;BME280;34776;48.180;16.420;2023-02-15T13:34:23;101234.09;;;9.73;51.39
48964;BME280;34776;48.180;16.420;2023-02-15T13:36:57;101232.50;;;9.66;51.47
48964;BME280;34776;48.180;16.420;2023-02-15T13:39:44;101227.03;;;9.72;51.34
48964;BME280;34776;48.180;16.420;2023-02-15T13:42:32;101229.53;;;9.78;50.87
48964;BME280;34776;48.180;16.420;2023-02-15T13:45:29;101230.53;;;9.74;50.72
48964;BME280;34776;48.180;16.420;2023-02-15T13:48:20;101234.66;;;9.51;50.63
48964;BME280;34776;48.180;16.420;2023-02-15T13:54:03;101227.31;;;9.24;51.75
48964;BME280;34776;48.180;16.420;2023-02-15T13:56:29;101230.19;;;9.14;51.90
48964;BME280;34776;48.180;16.420;2023-02-15T13:59:06;101224.28;;;9.02;52.14
48964;BME280;34776;48.180;16.420;2023-02-15T14:07:24;101218.03;;;9.04;52.02
48964;BME280;34776;48.180;16.420;2023-02-15T14:12:47;101220.19;;;8.87;52.52
48964;BME280;34776;48.180;16.420;2023-02-15T14:26:13;101208.88;;;8.33;53.38
48964;BME280;34776;48.180;16.420;2023-02-15T14:28:51;101205.31;;;8.36;53.59
48964;BME280;34776;48.180;16.420;2023-02-15T14:31:29;101199.94;;;8.39;53.61
48964;BME280;34776;48.180;16.420;2023-02-15T14:33:58;101203.44;;;8.43;53.60
48964;BME280;34776;48.180;16.420;2023-02-15T14:36:25;101196.47;;;8.36;53.77
48964;BME280;34776;48.180;16.420;2023-02-15T14:42:02;101192.69;;;8.04;54.50
48964;BME280;34776;48.180;16.420;2023-02-15T14:44:37;101192.78;;;7.98;54.87
48964;BME280;34776;48.180;16.420;2023-02-15T14:47:20;101197.25;;;7.96;55.02
48964;BME280;34776;48.180;16.420;2023-02-15T14:49:47;101198.28;;;7.87;54.97
48964;BME280;34776;48.180;16.420;2023-02-15T14:52:12;101187.06;;;7.74;55.30
48964;BME280;34776;48.180;16.420;2023-02-15T14:59:49;101188.28;;;7.53;56.02
48964;BME280;34776;48.180;16.420;2023-02-15T15:02:23;101193.94;;;7.33;56.20
48964;BME280;34776;48.180;16.420;2023-02-15T15:04:59;101194.97;;;7.23;56.56
48964;BME280;34776;48.180;16.420;2023-02-15T15:07:28;101193.38;;;7.09;56.73
48964;BME280;34776;48.180;16.420;2023-02-15T15:12:53;101187.47;;;6.94;57.47
48964;BME280;34776;48.180;16.420;2023-02-15T15:15:48;101184.94;;;6.84;57.65
48964;BME280;34776;48.180;16.420;2023-02-15T15:23:44;101180.28;;;6.37;58.92
48964;BME280;34776;48.180;16.420;2023-02-15T15:31:48;101175.34;;;6.06;59.78
48964;BME280;34776;48.180;16.420;2023-02-15T15:34:21;101175.47;;;5.97;59.92
48964;BME280;34776;48.180;16.420;2023-02-15T15:42:20;101179.16;;;5.74;60.78
48964;BME280;34776;48.180;16.420;2023-02-15T15:50:41;101178.47;;;5.54;61.24
48964;BME280;34776;48.180;16.420;2023-02-15T15:53:21;101177.66;;;5.45;61.57
48964;BME280;34776;48.180;16.420;2023-02-15T15:55:50;101168.91;;;5.40;61.57
48964;BME280;34776;48.180;16.420;2023-02-15T15:58:19;101168.97;;;5.31;61.82
48964;BME280;34776;48.180;16.420;2023-02-15T16:06:13;101166.50;;;5.11;62.49
48964;BME280;34776;48.180;16.420;2023-02-15T16:08:38;101172.72;;;5.02;63.04
48964;BME280;34776;48.180;16.420;2023-02-15T16:11:25;101167.50;;;4.93;63.73
48964;BME280;34776;48.180;16.420;2023-02-15T16:13:53;101174.56;;;4.85;63.67
48964;BME280;34776;48.180;16.420;2023-02-15T16:16:27;101167.59;;;4.78;63.88
48964;BME280;34776;48.180;16.420;2023-02-15T16:18:55;101172.88;;;4.75;63.98
48964;BME280;34776;48.180;16.420;2023-02-15T16:21:31;101170.28;;;4.67;64.50
48964;BME280;34776;48.180;16.420;2023-02-15T16:24:25;101172.94;;;4.59;64.79
48964;BME280;34776;48.180;16.420;2023-02-15T16:29:41;101162.47;;;4.47;64.36
48964;BME280;34776;48.180;16.420;2023-02-15T16:32:24;101175.69;;;4.39;64.92
48964;BME280;34776;48.180;16.420;2023-02-15T16:34:54;101176.56;;;4.34;64.83
48964;BME280;34776;48.180;16.420;2023-02-15T16:37:23;101171.34;;;4.27;65.31
48964;BME280;34776;48.180;16.420;2023-02-15T16:39:51;101178.38;;;4.22;65.45